createdAt,value
2019-05-01T00:00:27.877Z,8.21
2019-05-01T00:03:16.431Z,8.15
2019-05-01T00:05:45.765Z,8.15
2019-05-01T00:08:12.440Z,8.18
2019-05-01T00:10:38.948Z,8.20
2019-05-01T00:13:06.213Z,8.15
2019-05-01T00:15:34.346Z,8.13
2019-05-01T00:18:01.010Z,8.12
2019-05-01T00:20:27.907Z,8.04
2019-05-01T00:22:54.531Z,7.96
2019-05-01T00:25:21.117Z,7.92
2019-05-01T00:27:47.601Z,7.90
2019-05-01T00:30:29.286Z,7.80
2019-05-01T00:32:45.796Z,7.74
2019-05-01T00:35:12.359Z,7.71
2019-05-01T00:37:38.852Z,7.71
2019-05-01T00:40:05.561Z,7.71
2019-05-01T00:42:32.045Z,7.69
2019-05-01T00:44:58.833Z,7.67
2019-05-01T00:47:25.628Z,7.65
2019-05-01T00:49:52.263Z,7.63
2019-05-01T00:52:18.744Z,7.60
2019-05-01T00:54:47.559Z,7.59
2019-05-01T00:57:38.332Z,7.62
2019-05-01T01:00:19.202Z,7.57
2019-05-01T01:02:49.037Z,7.56
2019-05-01T01:05:15.615Z,7.46
2019-05-01T01:07:42.131Z,7.37
2019-05-01T01:10:08.699Z,7.27
2019-05-01T01:12:35.356Z,7.20
2019-05-01T01:15:01.866Z,7.11
2019-05-01T01:17:28.303Z,7.02
2019-05-01T01:19:54.808Z,6.98
2019-05-01T01:22:27.322Z,7.01
2019-05-01T01:24:54.212Z,7.05
2019-05-01T01:27:20.713Z,7.05
2019-05-01T01:29:47.383Z,7.05
2019-05-01T01:32:13.884Z,7.00
2019-05-01T01:34:40.757Z,7.00
2019-05-01T01:37:07.994Z,7.03
2019-05-01T01:39:34.892Z,7.09
2019-05-01T01:42:01.532Z,7.12
2019-05-01T01:44:39.865Z,7.10
2019-05-01T01:47:06.461Z,7.10
2019-05-01T01:49:33.085Z,7.11
2019-05-01T01:51:59.992Z,7.15
2019-05-01T01:54:27.009Z,7.15
2019-05-01T01:56:53.813Z,7.15
2019-05-01T01:59:20.922Z,7.13
2019-05-01T02:02:09.915Z,7.13
2019-05-01T02:05:13.883Z,7.13
2019-05-01T02:07:40.628Z,7.10
2019-05-01T02:10:07.709Z,7.06
2019-05-01T02:12:35.177Z,7.03
2019-05-01T02:15:01.668Z,7.00
2019-05-01T02:17:28.163Z,7.03
2019-05-01T02:19:54.767Z,7.05
2019-05-01T02:22:21.212Z,7.02
2019-05-01T02:24:47.745Z,7.06
2019-05-01T02:27:19.861Z,7.09
2019-05-01T02:29:50.792Z,7.09
2019-05-01T02:32:19.025Z,7.10
2019-05-01T02:34:46.389Z,7.15
2019-05-01T02:37:14.432Z,7.24
2019-05-01T02:39:42.027Z,7.28
2019-05-01T02:42:10.221Z,7.31
2019-05-01T02:44:38.961Z,7.30
2019-05-01T02:47:09.491Z,7.27
2019-05-01T02:49:50.057Z,7.27
2019-05-01T02:52:16.877Z,7.32
2019-05-01T02:54:44.732Z,7.35
2019-05-01T02:57:14.070Z,7.39
2019-05-01T02:59:49.247Z,7.44
2019-05-01T03:02:16.339Z,7.50
2019-05-01T03:04:43.767Z,7.54
2019-05-01T03:07:10.842Z,7.61
2019-05-01T03:09:37.750Z,7.72
2019-05-01T03:12:05.128Z,7.83
2019-05-01T03:14:34.317Z,7.95
2019-05-01T03:17:03.199Z,8.00
2019-05-01T03:20:04.793Z,8.07
2019-05-01T03:22:43.849Z,8.16
2019-05-01T03:25:11.265Z,8.28
2019-05-01T03:27:38.063Z,8.35
2019-05-01T03:30:04.807Z,8.40
2019-05-01T03:32:31.878Z,8.48
2019-05-01T03:34:58.440Z,8.49
2019-05-01T03:37:25.255Z,8.51
2019-05-01T03:39:52.490Z,8.52
2019-05-01T03:42:19.060Z,8.54
2019-05-01T03:44:45.647Z,8.57
2019-05-01T03:47:14.394Z,8.57
2019-05-01T03:49:41.909Z,8.58
2019-05-01T03:52:08.683Z,8.60
2019-05-01T03:54:35.286Z,8.63
2019-05-01T03:57:01.880Z,8.67
2019-05-01T03:59:28.752Z,8.70
2019-05-01T04:02:32.359Z,8.74
2019-05-01T04:04:46.444Z,8.81
2019-05-01T04:07:13.047Z,8.84
2019-05-01T04:09:40.407Z,8.82
2019-05-01T04:12:07.103Z,8.84
2019-05-01T04:14:34.105Z,8.81
2019-05-01T04:17:09.122Z,8.80
2019-05-01T04:19:36.205Z,8.81
2019-05-01T04:22:09.687Z,8.84
2019-05-01T04:24:36.326Z,8.86
2019-05-01T04:27:04.921Z,8.86
2019-05-01T04:29:40.940Z,8.86
2019-05-01T04:32:14.291Z,8.85
2019-05-01T04:35:00.814Z,8.84
2019-05-01T04:37:27.811Z,8.86
2019-05-01T04:39:54.372Z,8.87
2019-05-01T04:42:21.922Z,8.86
2019-05-01T04:44:48.826Z,8.89
2019-05-01T04:47:16.065Z,8.93
2019-05-01T04:49:42.679Z,8.96
2019-05-01T04:52:09.399Z,9.00
2019-05-01T04:54:36.095Z,8.99
2019-05-01T04:57:03.097Z,9.04
2019-05-01T04:59:29.706Z,9.11
2019-05-01T05:04:32.522Z,9.17
2019-05-01T05:06:59.857Z,9.25
2019-05-01T05:09:46.159Z,9.32
2019-05-01T05:12:22.503Z,9.38
2019-05-01T05:14:54.097Z,9.49
2019-05-01T05:17:21.965Z,9.54
2019-05-01T05:19:49.017Z,9.65
2019-05-01T05:22:16.678Z,9.73
2019-05-01T05:24:43.253Z,9.79
2019-05-01T05:27:10.173Z,9.79
2019-05-01T05:29:36.841Z,9.80
2019-05-01T05:32:03.546Z,9.71
2019-05-01T05:34:31.961Z,9.59
2019-05-01T05:37:02.437Z,9.52
2019-05-01T05:39:37.720Z,9.42
2019-05-01T05:42:04.559Z,9.36
2019-05-01T05:44:31.429Z,9.40
2019-05-01T05:46:58.043Z,9.41
2019-05-01T05:49:24.800Z,9.41
2019-05-01T05:52:11.074Z,9.43
2019-05-01T05:55:07.849Z,9.55
2019-05-01T05:57:40.436Z,9.64
2019-05-01T06:00:25.793Z,9.77
2019-05-01T06:03:13.118Z,9.81
2019-05-01T06:05:52.543Z,9.93
2019-05-01T06:08:24.292Z,10.01
2019-05-01T06:11:10.888Z,10.19
2019-05-01T06:13:58.912Z,10.37
2019-05-01T06:16:41.775Z,10.49
2019-05-01T06:19:29.364Z,10.52
2019-05-01T06:22:11.884Z,10.57
2019-05-01T06:24:42.406Z,10.69
2019-05-01T06:27:13.743Z,10.83
2019-05-01T06:29:38.929Z,10.98
2019-05-01T06:32:06.060Z,11.00
2019-05-01T06:34:32.721Z,11.05
2019-05-01T06:36:59.229Z,10.93
2019-05-01T06:39:26.194Z,11.00
2019-05-01T06:41:53.004Z,10.98
2019-05-01T06:44:33.500Z,11.02
2019-05-01T06:47:21.009Z,10.99
2019-05-01T06:50:07.492Z,10.98
2019-05-01T06:52:35.151Z,10.93
2019-05-01T06:55:01.997Z,10.94
2019-05-01T06:57:31.063Z,10.90
2019-05-01T07:00:02.872Z,10.90
2019-05-01T07:02:29.916Z,10.87
2019-05-01T07:04:56.752Z,10.86
2019-05-01T07:07:25.695Z,10.89
2019-05-01T07:09:53.895Z,10.95
2019-05-01T07:12:23.977Z,11.07
2019-05-01T07:14:51.145Z,11.22
2019-05-01T07:17:18.696Z,11.30
2019-05-01T07:20:04.799Z,11.43
2019-05-01T07:22:31.642Z,11.56
2019-05-01T07:25:04.196Z,11.64
2019-05-01T07:27:27.924Z,11.69
2019-05-01T07:29:58.004Z,11.78
2019-05-01T07:32:24.668Z,11.88
2019-05-01T07:34:51.455Z,12.02
2019-05-01T07:37:20.872Z,12.16
2019-05-01T07:39:49.858Z,12.33
2019-05-01T07:42:30.183Z,12.53
2019-05-01T07:45:03.905Z,12.74
2019-05-01T07:47:39.257Z,12.82
2019-05-01T07:50:08.008Z,12.87
2019-05-01T07:52:35.212Z,12.95
2019-05-01T07:55:02.018Z,13.13
2019-05-01T07:57:28.642Z,13.32
2019-05-01T07:59:58.204Z,13.48
2019-05-01T08:02:25.814Z,13.56
2019-05-01T08:04:53.686Z,13.66
2019-05-01T08:07:20.183Z,13.73
2019-05-01T08:09:50.242Z,13.80
2019-05-01T08:12:18.867Z,14.05
2019-05-01T08:14:47.810Z,14.50
2019-05-01T08:17:18.104Z,14.96
2019-05-01T08:19:54.010Z,15.21
2019-05-01T08:22:22.792Z,15.37
2019-05-01T08:24:49.339Z,15.29
2019-05-01T08:27:37.264Z,15.35
2019-05-01T08:30:22.709Z,15.68
2019-05-01T08:33:09.814Z,16.39
2019-05-01T08:35:37.661Z,16.67
2019-05-01T08:38:04.313Z,17.06
2019-05-01T08:40:30.835Z,17.22
2019-05-01T08:42:57.344Z,17.14
2019-05-01T08:46:01.800Z,17.53
2019-05-01T08:48:41.647Z,17.30
2019-05-01T08:51:09.269Z,17.02
2019-05-01T08:53:35.844Z,16.61
2019-05-01T08:56:02.819Z,16.62
2019-05-01T08:58:29.419Z,16.80
2019-05-01T09:00:55.925Z,16.80
2019-05-01T09:03:22.452Z,16.83
2019-05-01T09:05:52.308Z,16.63
2019-05-01T09:08:17.482Z,16.64
2019-05-01T09:10:43.968Z,16.19
2019-05-01T09:13:10.522Z,16.36
2019-05-01T09:15:37.372Z,16.54
2019-05-01T09:18:05.140Z,16.54
2019-05-01T09:20:32.829Z,16.56
2019-05-01T09:22:59.400Z,17.06
2019-05-01T09:25:35.393Z,17.40
2019-05-01T09:28:12.273Z,17.96
2019-05-01T09:30:47.601Z,18.05
2019-05-01T09:33:14.126Z,18.45
2019-05-01T09:35:45.353Z,18.83
2019-05-01T09:38:09.396Z,19.00
2019-05-01T09:40:35.974Z,19.92
2019-05-01T09:43:03.675Z,20.11
2019-05-01T09:45:30.192Z,20.58
2019-05-01T09:47:56.911Z,20.45
2019-05-01T09:50:25.776Z,20.62
2019-05-01T09:53:13.928Z,20.59
2019-05-01T09:55:52.513Z,21.10
2019-05-01T09:58:19.050Z,21.37
2019-05-01T10:00:48.906Z,21.22
2019-05-01T10:03:16.871Z,21.15
2019-05-01T10:05:44.190Z,20.57
2019-05-01T10:08:12.928Z,20.10
2019-05-01T10:10:39.410Z,19.69
2019-05-01T10:13:05.973Z,19.86
2019-05-01T10:15:32.517Z,20.29
2019-05-01T10:18:02.265Z,20.90
2019-05-01T10:20:29.037Z,20.97
2019-05-01T10:22:55.763Z,20.49
2019-05-01T10:25:22.316Z,20.58
2019-05-01T10:27:58.180Z,21.58
2019-05-01T10:30:37.567Z,21.64
2019-05-01T10:33:07.297Z,21.79
2019-05-01T10:35:59.086Z,21.57
2019-05-01T10:38:25.611Z,21.39
2019-05-01T10:40:52.171Z,21.73
2019-05-01T10:43:18.640Z,21.87
2019-05-01T10:45:45.146Z,22.03
2019-05-01T10:48:11.636Z,22.07
2019-05-01T10:50:38.133Z,22.42
2019-05-01T10:53:04.821Z,22.15
2019-05-01T10:55:31.303Z,22.34
2019-05-01T10:57:57.861Z,22.69
2019-05-01T11:00:24.435Z,22.63
2019-05-01T11:02:50.902Z,22.42
2019-05-01T11:05:17.541Z,21.77
2019-05-01T11:07:44.053Z,20.76
2019-05-01T11:10:11.109Z,20.34
2019-05-01T11:12:37.617Z,20.73
2019-05-01T11:15:04.784Z,20.96
2019-05-01T11:17:31.261Z,21.37
2019-05-01T11:19:57.769Z,21.72
2019-05-01T11:22:24.740Z,22.24
2019-05-01T11:24:52.357Z,21.94
2019-05-01T11:27:18.882Z,21.62
2019-05-01T11:29:45.368Z,21.53
2019-05-01T11:32:23.411Z,22.31
2019-05-01T11:35:08.316Z,22.48
2019-05-01T11:37:40.837Z,22.22
2019-05-01T11:40:13.074Z,22.35
2019-05-01T11:42:39.669Z,22.78
2019-05-01T11:45:07.273Z,22.35
2019-05-01T11:47:33.890Z,23.06
2019-05-01T11:50:00.498Z,23.13
2019-05-01T11:52:28.157Z,22.37
2019-05-01T11:54:54.707Z,22.08
2019-05-01T11:57:21.253Z,21.96
2019-05-01T11:59:48.382Z,22.19
2019-05-01T12:02:15.203Z,22.62
2019-05-01T12:04:41.752Z,23.03
2019-05-01T12:07:08.218Z,22.90
2019-05-01T12:09:34.863Z,22.50
2019-05-01T12:12:05.086Z,22.58
2019-05-01T12:14:31.808Z,22.48
2019-05-01T12:17:07.325Z,23.43
2019-05-01T12:19:41.893Z,23.81
2019-05-01T12:22:08.394Z,22.62
2019-05-01T12:24:35.888Z,22.24
2019-05-01T12:27:02.509Z,22.78
2019-05-01T12:29:29.029Z,23.08
2019-05-01T12:31:55.538Z,23.42
2019-05-01T12:34:22.113Z,22.81
2019-05-01T12:36:49.576Z,23.02
2019-05-01T12:39:22.938Z,23.24
2019-05-01T12:41:56.366Z,22.46
2019-05-01T12:44:22.964Z,21.95
2019-05-01T12:47:10.293Z,22.54
2019-05-01T12:49:37.154Z,22.87
2019-05-01T12:52:10.516Z,22.76
2019-05-01T12:54:41.998Z,22.68
2019-05-01T12:57:08.552Z,22.89
2019-05-01T12:59:35.056Z,23.29
2019-05-01T13:02:01.808Z,23.37
2019-05-01T13:04:28.481Z,22.82
2019-05-01T13:06:56.568Z,23.07
2019-05-01T13:09:27.104Z,23.19
2019-05-01T13:11:53.608Z,23.63
2019-05-01T13:14:22.158Z,23.75
2019-05-01T13:16:48.946Z,23.53
2019-05-01T13:19:15.392Z,23.16
2019-05-01T13:21:42.018Z,22.86
2019-05-01T13:24:09.091Z,23.01
2019-05-01T13:26:40.948Z,23.31
2019-05-01T13:29:13.809Z,23.15
2019-05-01T13:32:15.414Z,22.88
2019-05-01T13:34:41.979Z,22.28
2019-05-01T13:37:08.509Z,21.08
2019-05-01T13:39:35.193Z,20.93
2019-05-01T13:42:01.971Z,20.92
2019-05-01T13:44:30.664Z,20.57
2019-05-01T13:46:57.216Z,20.69
2019-05-01T13:49:23.859Z,20.85
2019-05-01T13:51:52.503Z,21.11
2019-05-01T13:54:19.094Z,21.76
2019-05-01T13:56:45.839Z,21.46
2019-05-01T13:59:13.829Z,21.41
2019-05-01T14:01:40.638Z,21.19
2019-05-01T14:04:08.040Z,21.02
2019-05-01T14:06:34.500Z,20.40
2019-05-01T14:09:01.015Z,20.42
2019-05-01T14:11:27.997Z,20.12
2019-05-01T14:13:54.718Z,19.85
2019-05-01T14:16:21.867Z,19.80
2019-05-01T14:18:49.119Z,19.78
2019-05-01T14:21:23.593Z,19.98
2019-05-01T14:24:01.602Z,19.94
2019-05-01T14:26:30.489Z,20.33
2019-05-01T14:28:57.061Z,20.81
2019-05-01T14:31:23.988Z,21.13
2019-05-01T14:33:50.956Z,21.10
2019-05-01T14:36:17.477Z,21.43
2019-05-01T14:38:44.150Z,21.21
2019-05-01T14:41:10.686Z,20.95
2019-05-01T14:43:37.928Z,20.78
2019-05-01T14:46:04.570Z,20.61
2019-05-01T14:48:31.221Z,20.52
2019-05-01T14:50:58.088Z,20.47
2019-05-01T14:53:25.892Z,20.37
2019-05-01T14:55:52.509Z,20.16
2019-05-01T14:58:19.188Z,19.94
2019-05-01T15:00:46.061Z,20.15
2019-05-01T15:03:12.563Z,20.03
2019-05-01T15:05:39.111Z,19.94
2019-05-01T15:08:06.202Z,20.07
2019-05-01T15:10:32.911Z,20.23
2019-05-01T15:13:02.004Z,20.00
2019-05-01T15:15:52.135Z,20.07
2019-05-01T15:18:24.814Z,19.94
2019-05-01T15:20:51.359Z,19.72
2019-05-01T15:23:20.358Z,19.59
2019-05-01T15:25:47.356Z,19.62
2019-05-01T15:28:13.826Z,19.43
2019-05-01T15:30:42.001Z,19.64
2019-05-01T15:33:09.143Z,19.68
2019-05-01T15:35:36.653Z,19.81
2019-05-01T15:38:03.690Z,19.81
2019-05-01T15:40:47.227Z,19.54
2019-05-01T15:43:31.990Z,19.61
2019-05-01T15:45:58.599Z,19.51
2019-05-01T15:48:25.210Z,19.17
2019-05-01T15:50:51.782Z,19.30
2019-05-01T15:53:18.292Z,19.30
2019-05-01T15:55:46.592Z,19.53
2019-05-01T15:58:13.622Z,19.75
2019-05-01T16:00:40.191Z,19.77
2019-05-01T16:03:06.669Z,19.71
2019-05-01T16:05:33.277Z,19.42
2019-05-01T16:08:09.387Z,19.25
2019-05-01T16:10:33.775Z,19.28
2019-05-01T16:13:01.565Z,19.19
2019-05-01T16:15:29.750Z,19.36
2019-05-01T16:17:56.687Z,19.08
2019-05-01T16:20:24.279Z,19.14
2019-05-01T16:22:50.747Z,19.03
2019-05-01T16:25:17.428Z,18.90
2019-05-01T16:27:44.254Z,18.87
2019-05-01T16:30:12.891Z,18.72
2019-05-01T16:32:39.444Z,18.64
2019-05-01T16:35:06.347Z,18.56
2019-05-01T16:37:32.885Z,18.47
2019-05-01T16:40:31.533Z,18.38
2019-05-01T16:42:58.290Z,18.36
2019-05-01T16:45:25.544Z,18.50
2019-05-01T16:47:52.160Z,18.57
2019-05-01T16:50:23.625Z,18.57
2019-05-01T16:52:50.393Z,18.52
2019-05-01T16:55:16.970Z,18.22
2019-05-01T16:57:43.489Z,18.31
2019-05-01T17:00:10.990Z,18.29
2019-05-01T17:03:10.306Z,18.11
2019-05-01T17:05:58.857Z,17.88
2019-05-01T17:08:45.723Z,17.81
2019-05-01T17:11:12.542Z,17.71
2019-05-01T17:13:39.186Z,17.55
2019-05-01T17:16:05.821Z,17.41
2019-05-01T17:18:32.309Z,17.48
2019-05-01T17:20:58.843Z,17.48
2019-05-01T17:23:25.373Z,17.44
2019-05-01T17:25:52.937Z,17.47
2019-05-01T17:28:19.447Z,17.50
2019-05-01T17:30:49.362Z,17.59
2019-05-01T17:33:20.626Z,17.61
2019-05-01T17:35:44.538Z,17.70
2019-05-01T17:38:11.059Z,17.69
2019-05-01T17:40:37.520Z,17.74
2019-05-01T17:43:08.153Z,17.74
2019-05-01T17:45:34.794Z,17.65
2019-05-01T17:48:01.085Z,17.58
2019-05-01T17:50:27.535Z,17.47
2019-05-01T17:52:54.536Z,17.48
2019-05-01T17:55:21.229Z,17.41
2019-05-01T17:57:47.723Z,17.34
2019-05-01T18:00:39.781Z,17.33
2019-05-01T18:03:18.120Z,17.29
2019-05-01T18:06:13.198Z,17.23
2019-05-01T18:08:39.741Z,17.15
2019-05-01T18:11:09.273Z,17.07
2019-05-01T18:13:35.021Z,16.93
2019-05-01T18:16:01.979Z,16.81
2019-05-01T18:18:28.543Z,16.63
2019-05-01T18:20:57.247Z,16.49
2019-05-01T18:23:42.835Z,16.32
2019-05-01T18:26:18.664Z,16.10
2019-05-01T18:28:55.388Z,15.92
2019-05-01T18:31:27.993Z,15.46
2019-05-01T18:33:56.997Z,15.30
2019-05-01T18:36:30.990Z,15.30
2019-05-01T18:39:01.835Z,15.20
2019-05-01T18:41:41.253Z,15.16
2019-05-01T18:44:10.185Z,15.08
2019-05-01T18:46:37.760Z,14.95
2019-05-01T18:49:04.389Z,14.81
2019-05-01T18:51:31.226Z,14.67
2019-05-01T18:53:58.899Z,14.46
2019-05-01T18:56:26.654Z,14.30
2019-05-01T18:58:53.223Z,14.16
2019-05-01T19:01:20.232Z,14.05
2019-05-01T19:03:46.774Z,13.97
2019-05-01T19:06:13.270Z,13.84
2019-05-01T19:08:40.221Z,13.72
2019-05-01T19:11:12.839Z,13.62
2019-05-01T19:13:37.886Z,13.49
2019-05-01T19:16:08.290Z,13.42
2019-05-01T19:18:33.494Z,13.33
2019-05-01T19:21:00.172Z,13.28
2019-05-01T19:23:33.177Z,13.22
2019-05-01T19:26:03.579Z,13.14
2019-05-01T19:28:27.772Z,13.08
2019-05-01T19:30:59.748Z,12.97
2019-05-01T19:33:26.371Z,12.92
2019-05-01T19:35:54.258Z,12.89
2019-05-01T19:38:20.756Z,12.86
2019-05-01T19:40:47.641Z,12.86
2019-05-01T19:43:14.197Z,12.87
2019-05-01T19:45:40.917Z,12.82
2019-05-01T19:48:07.497Z,12.78
2019-05-01T19:50:39.854Z,12.73
2019-05-01T19:53:04.803Z,12.69
2019-05-01T19:55:33.711Z,12.58
2019-05-01T19:58:00.799Z,12.54
2019-05-01T20:00:57.961Z,12.44
2019-05-01T20:03:24.640Z,12.37
2019-05-01T20:05:52.371Z,12.34
2019-05-01T20:08:19.161Z,12.31
2019-05-01T20:10:45.792Z,12.32
2019-05-01T20:13:15.859Z,12.28
2019-05-01T20:15:42.909Z,12.26
2019-05-01T20:18:09.523Z,12.24
2019-05-01T20:20:36.314Z,12.22
2019-05-01T20:23:02.944Z,12.14
2019-05-01T20:25:29.643Z,12.11
2019-05-01T20:28:02.158Z,12.05
2019-05-01T20:30:29.766Z,12.02
2019-05-01T20:33:02.445Z,12.00
2019-05-01T20:35:34.243Z,11.96
2019-05-01T20:38:00.796Z,11.95
2019-05-01T20:40:27.338Z,11.94
2019-05-01T20:42:54.012Z,11.93
2019-05-01T20:45:20.684Z,11.96
2019-05-01T20:47:48.172Z,11.93
2019-05-01T20:50:15.329Z,11.91
2019-05-01T20:52:43.827Z,11.85
2019-05-01T20:55:10.414Z,11.72
2019-05-01T20:57:38.955Z,11.67
2019-05-01T21:00:11.457Z,11.59
2019-05-01T21:02:38.898Z,11.55
2019-05-01T21:05:16.294Z,11.49
2019-05-01T21:07:56.212Z,11.45
2019-05-01T21:10:24.820Z,11.45
2019-05-01T21:12:51.088Z,11.43
2019-05-01T21:15:19.999Z,11.40
2019-05-01T21:17:49.223Z,11.36
2019-05-01T21:20:14.457Z,11.33
2019-05-01T21:22:41.061Z,11.27
2019-05-01T21:25:08.116Z,11.30
2019-05-01T21:27:34.721Z,11.24
2019-05-01T21:30:01.374Z,11.23
2019-05-01T21:32:27.974Z,11.22
2019-05-01T21:34:54.583Z,11.24
2019-05-01T21:37:21.102Z,11.19
2019-05-01T21:39:47.821Z,11.21
2019-05-01T21:42:16.116Z,11.19
2019-05-01T21:44:43.707Z,11.18
2019-05-01T21:47:10.324Z,11.17
2019-05-01T21:49:36.923Z,11.19
2019-05-01T21:52:07.397Z,11.16
2019-05-01T21:54:34.193Z,11.20
2019-05-01T21:57:00.865Z,11.19
2019-05-01T21:59:29.063Z,11.17
2019-05-01T22:01:55.607Z,11.07
2019-05-01T22:04:22.308Z,11.03
2019-05-01T22:06:51.874Z,10.97
2019-05-01T22:09:21.684Z,10.90
2019-05-01T22:11:48.299Z,10.83
2019-05-01T22:14:25.132Z,10.77
2019-05-01T22:16:53.185Z,10.76
2019-05-01T22:19:20.432Z,10.78
2019-05-01T22:22:05.230Z,10.78
2019-05-01T22:24:39.857Z,10.76
2019-05-01T22:27:13.734Z,10.74
2019-05-01T22:29:46.616Z,10.73
2019-05-01T22:32:21.879Z,10.73
2019-05-01T22:34:59.376Z,10.69
2019-05-01T22:37:26.002Z,10.68
2019-05-01T22:40:00.434Z,10.71
2019-05-01T22:42:26.961Z,10.71
2019-05-01T22:44:53.541Z,10.70
2019-05-01T22:47:20.511Z,10.72
2019-05-01T22:49:47.178Z,10.69
2019-05-01T22:52:13.639Z,10.68
2019-05-01T22:54:44.830Z,10.70
2019-05-01T22:57:08.862Z,10.71
2019-05-01T22:59:35.326Z,10.69
2019-05-01T23:02:11.738Z,10.66
2019-05-01T23:04:38.666Z,10.62
2019-05-01T23:07:05.130Z,10.61
2019-05-01T23:09:32.350Z,10.52
2019-05-01T23:11:58.940Z,10.49
2019-05-01T23:14:26.114Z,10.48
2019-05-01T23:17:03.375Z,10.45
2019-05-01T23:19:33.227Z,10.41
2019-05-01T23:22:00.024Z,10.34
2019-05-01T23:24:26.511Z,10.28
2019-05-01T23:26:53.091Z,10.23
2019-05-01T23:29:19.547Z,10.18
2019-05-01T23:31:46.030Z,10.12
2019-05-01T23:34:12.655Z,10.10
2019-05-01T23:36:39.137Z,10.14
2019-05-01T23:39:05.676Z,10.13
2019-05-01T23:41:45.280Z,10.09
2019-05-01T23:44:03.577Z,10.09
2019-05-01T23:46:29.701Z,10.06
2019-05-01T23:48:56.344Z,9.99
2019-05-01T23:51:23.793Z,9.91
2019-05-01T23:53:51.320Z,9.82
2019-05-01T23:56:17.955Z,9.75
2019-05-01T23:58:44.585Z,9.73
